Time;durP1;ratioP1;P1;durP2;ratioP2;P2;SDS_P1;SDS_P2;PMS_P1;PMS_P2;Temp;Humidity;BMP_temperature;BMP_pressure;BME280_temperature;BME280_humidity;BME280_pressure;Samples;Min_cycle;Max_cycle;Signal;HPM_P1;HPM_P2
2020/12/05 00:01:07;;;;;;;24.27;16.37;;;2.80;99.90;;;;;;5113649;28;20522;-85
2020/12/05 00:03:34;;;;;;;20.53;15.53;;;2.80;99.90;;;;;;5112308;28;20696;-83
2020/12/05 00:06:00;;;;;;;20.00;15.67;;;2.80;99.90;;;;;;5112814;28;20212;-83
2020/12/05 00:08:27;;;;;;;18.83;14.70;;;2.80;99.90;;;;;;5112488;28;20735;-83
2020/12/05 00:10:53;;;;;;;19.47;15.30;;;2.80;99.90;;;;;;5112861;27;20301;-83
2020/12/05 00:13:19;;;;;;;21.03;15.23;;;2.80;99.90;;;;;;5112619;28;20288;-83
2020/12/05 00:15:46;;;;;;;20.77;15.20;;;2.80;99.90;;;;;;5112511;28;20337;-83
2020/12/05 00:18:12;;;;;;;16.80;14.00;;;2.80;99.90;;;;;;5112434;28;20296;-83
2020/12/05 00:20:39;;;;;;;18.63;15.23;;;2.80;99.90;;;;;;5112198;28;20206;-83
2020/12/05 00:23:06;;;;;;;19.93;15.13;;;2.80;99.90;;;;;;5112066;28;20206;-84
2020/12/05 00:25:32;;;;;;;20.60;15.50;;;2.70;99.90;;;;;;5112060;27;20198;-83
2020/12/05 00:27:58;;;;;;;18.97;15.17;;;2.70;99.90;;;;;;5112725;28;20333;-87
2020/12/05 00:30:28;;;;;;;19.50;15.17;;;2.70;99.90;;;;;;5113661;28;20214;-87
2020/12/05 00:32:57;;;;;;;21.50;16.07;;;2.70;99.90;;;;;;5113590;28;20210;-87
2020/12/05 00:35:23;;;;;;;20.17;16.03;;;2.70;99.90;;;;;;5113539;27;20198;-86
2020/12/05 00:37:50;;;;;;;21.57;16.13;;;2.60;99.90;;;;;;5109605;28;20226;-88
2020/12/05 00:40:17;;;;;;;21.37;15.90;;;2.60;99.90;;;;;;5112465;27;20297;-87
2020/12/05 00:42:43;;;;;;;19.73;15.93;;;2.60;99.90;;;;;;5112663;28;20208;-87
2020/12/05 00:45:09;;;;;;;22.10;16.03;;;2.60;99.90;;;;;;5112512;28;20668;-85
2020/12/05 00:47:36;;;;;;;21.10;16.10;;;2.60;99.90;;;;;;5112472;28;20226;-87
2020/12/05 00:50:02;;;;;;;21.03;16.30;;;2.60;99.90;;;;;;5112566;28;20272;-88
2020/12/05 00:52:28;;;;;;;25.50;16.57;;;2.60;99.90;;;;;;5112312;28;20272;-88
2020/12/05 00:54:56;;;;;;;21.73;16.20;;;2.60;99.90;;;;;;5112964;28;20278;-86
2020/12/05 00:57:22;;;;;;;20.50;15.20;;;2.60;99.90;;;;;;5112468;28;20206;-86
2020/12/05 00:59:48;;;;;;;21.40;16.63;;;2.70;99.90;;;;;;5113059;28;20259;-86
2020/12/05 01:02:15;;;;;;;22.20;16.27;;;2.60;99.90;;;;;;5112529;28;20222;-87
2020/12/05 01:04:41;;;;;;;22.13;15.83;;;2.70;99.90;;;;;;5112362;28;20302;-86
2020/12/05 01:07:07;;;;;;;22.60;16.67;;;2.60;99.90;;;;;;5112529;28;20265;-86
2020/12/05 01:09:34;;;;;;;23.13;16.03;;;2.70;99.90;;;;;;5111294;28;20206;-84
2020/12/05 01:12:01;;;;;;;21.00;14.87;;;2.70;99.90;;;;;;5111381;28;20301;-83
2020/12/05 01:14:27;;;;;;;21.23;15.90;;;2.70;99.90;;;;;;5110303;28;20273;-84
2020/12/05 01:16:54;;;;;;;19.67;15.77;;;2.70;99.90;;;;;;5110540;28;20924;-83
2020/12/05 01:19:20;;;;;;;19.70;15.17;;;2.70;99.90;;;;;;5110789;28;20716;-83
2020/12/05 01:21:47;;;;;;;21.77;16.43;;;2.70;99.90;;;;;;5110818;28;20203;-84
2020/12/05 01:24:13;;;;;;;20.90;15.07;;;2.70;99.90;;;;;;5110917;28;20206;-83
2020/12/05 01:26:40;;;;;;;20.13;16.27;;;2.80;99.90;;;;;;5110670;28;20312;-83
2020/12/05 01:29:07;;;;;;;21.77;15.93;;;2.70;99.90;;;;;;5110831;28;20245;-82
2020/12/05 01:31:33;;;;;;;20.20;15.60;;;2.80;99.90;;;;;;5110675;28;20937;-84
2020/12/05 01:34:02;;;;;;;21.47;16.10;;;2.80;99.90;;;;;;5110232;28;20198;-82
2020/12/05 01:36:29;;;;;;;25.60;16.40;;;2.80;99.90;;;;;;5110542;27;20256;-83
2020/12/05 01:38:56;;;;;;;21.00;15.70;;;2.80;99.90;;;;;;5110212;27;20700;-81
2020/12/05 01:41:22;;;;;;;23.13;15.77;;;2.80;99.90;;;;;;5110571;27;20306;-84
2020/12/05 01:43:49;;;;;;;21.00;16.03;;;2.80;99.90;;;;;;5110702;28;20208;-85
2020/12/05 01:46:30;;;;;;;21.37;15.53;;;2.80;99.90;;;;;;5110768;28;20293;-84
2020/12/05 01:48:57;;;;;;;21.10;15.77;;;2.70;99.90;;;;;;5111291;28;21187;-84
2020/12/05 01:51:23;;;;;;;21.13;16.10;;;2.80;99.90;;;;;;5110618;28;20263;-84
2020/12/05 01:53:50;;;;;;;19.57;15.13;;;2.80;99.90;;;;;;5111538;28;20238;-87
2020/12/05 01:56:18;;;;;;;19.00;15.00;;;2.70;99.90;;;;;;5111768;28;20686;-89
2020/12/05 01:58:44;;;;;;;17.87;14.67;;;2.70;99.90;;;;;;5112096;28;20206;-86
2020/12/05 02:01:12;;;;;;;18.93;14.53;;;2.70;99.90;;;;;;5111343;28;20659;-85
2020/12/05 02:03:39;;;;;;;19.20;15.40;;;2.80;99.90;;;;;;5111392;28;20594;-86
2020/12/05 02:06:13;;;;;;;18.63;15.40;;;2.80;99.90;;;;;;5111572;28;20317;-87
2020/12/05 02:08:54;;;;;;;22.00;16.63;;;2.80;99.90;;;;;;5111773;28;20211;-87
2020/12/05 02:11:27;;;;;;;21.87;15.73;;;2.70;99.90;;;;;;5111527;28;20277;-86
2020/12/05 02:13:59;;;;;;;20.73;16.00;;;2.70;99.90;;;;;;5111599;28;20275;-85
2020/12/05 02:16:25;;;;;;;22.43;15.97;;;2.70;99.90;;;;;;5111627;28;20205;-87
2020/12/05 02:18:54;;;;;;;19.80;15.13;;;2.70;99.90;;;;;;5111303;28;20208;-86
2020/12/05 02:21:24;;;;;;;19.63;15.07;;;2.70;99.90;;;;;;5110921;28;20682;-85
2020/12/05 02:23:51;;;;;;;19.77;15.43;;;2.70;99.90;;;;;;5111337;28;20584;-85
2020/12/05 02:26:18;;;;;;;21.73;15.60;;;2.70;99.90;;;;;;5110468;28;20297;-85
2020/12/05 02:28:44;;;;;;;22.30;16.03;;;2.70;99.90;;;;;;5110827;28;20237;-85
2020/12/05 02:31:11;;;;;;;21.37;15.47;;;2.70;99.90;;;;;;5111289;28;20205;-87
2020/12/05 02:33:38;;;;;;;18.17;15.23;;;2.70;99.90;;;;;;5111027;28;20818;-88
2020/12/05 02:36:05;;;;;;;20.97;15.87;;;2.70;99.90;;;;;;5111530;28;20573;-85
2020/12/05 02:38:36;;;;;;;19.13;15.97;;;2.80;99.90;;;;;;5110878;28;20670;-85
2020/12/05 02:41:03;;;;;;;20.50;15.70;;;2.70;99.90;;;;;;5109817;28;20194;-85
2020/12/05 02:43:30;;;;;;;20.50;14.87;;;2.70;99.90;;;;;;5109306;28;20197;-84
2020/12/05 02:45:56;;;;;;;20.67;15.43;;;2.80;99.90;;;;;;5109708;28;20287;-85
2020/12/05 02:48:23;;;;;;;17.90;14.83;;;2.80;99.90;;;;;;5110076;28;20248;-86
2020/12/05 02:50:49;;;;;;;20.23;15.70;;;2.80;99.90;;;;;;5108450;28;20210;-82
2020/12/05 02:53:15;;;;;;;19.20;15.33;;;2.80;99.90;;;;;;5107839;28;20337;-81
2020/12/05 02:55:42;;;;;;;21.00;15.70;;;2.80;99.90;;;;;;5108591;28;20305;-81
2020/12/05 02:58:09;;;;;;;21.43;16.27;;;2.80;99.90;;;;;;5109184;28;20699;-82
2020/12/05 03:00:35;;;;;;;18.83;14.93;;;2.80;99.90;;;;;;5109190;28;20221;-83
2020/12/05 03:03:02;;;;;;;19.43;14.97;;;2.80;99.90;;;;;;5109216;28;20320;-82
2020/12/05 03:05:28;;;;;;;18.53;14.80;;;2.80;99.90;;;;;;5108800;28;20279;-83
2020/12/05 03:07:55;;;;;;;20.50;15.60;;;2.80;99.90;;;;;;5109300;28;20571;-82
2020/12/05 03:10:21;;;;;;;17.63;14.93;;;2.80;99.90;;;;;;5109044;28;20683;-82
2020/12/05 03:12:47;;;;;;;19.17;15.23;;;2.80;99.90;;;;;;5109223;28;20226;-82
2020/12/05 03:15:15;;;;;;;20.27;14.83;;;2.70;99.90;;;;;;5109274;28;20224;-83
2020/12/05 03:17:41;;;;;;;20.83;15.40;;;2.80;99.90;;;;;;5108867;28;20560;-83
2020/12/05 03:20:07;;;;;;;17.67;14.47;;;2.70;99.90;;;;;;5109203;28;20309;-82
2020/12/05 03:22:34;;;;;;;20.23;15.17;;;2.70;99.90;;;;;;5109176;28;20198;-82
2020/12/05 03:25:01;;;;;;;18.80;15.27;;;2.70;99.90;;;;;;5108980;28;20305;-82
2020/12/05 03:27:27;;;;;;;18.47;14.60;;;2.80;99.90;;;;;;5109071;28;20226;-83
2020/12/05 03:29:54;;;;;;;21.33;15.47;;;2.80;99.90;;;;;;5109010;28;20291;-83
2020/12/05 03:32:25;;;;;;;20.57;14.87;;;2.70;99.90;;;;;;5109262;28;20614;-82
2020/12/05 03:34:51;;;;;;;18.60;14.37;;;2.70;99.90;;;;;;5108988;28;20660;-82
2020/12/05 03:37:20;;;;;;;19.00;15.10;;;2.80;99.90;;;;;;5109005;28;20670;-82
2020/12/05 03:39:47;;;;;;;19.80;15.27;;;2.70;99.90;;;;;;5112468;28;20427;-82
2020/12/05 03:42:13;;;;;;;18.80;14.60;;;2.70;99.90;;;;;;5112445;28;20667;-81
2020/12/05 03:44:39;;;;;;;18.23;14.07;;;2.80;99.90;;;;;;5112131;28;20204;-81
2020/12/05 03:47:06;;;;;;;17.23;14.03;;;2.80;99.90;;;;;;5112344;28;20292;-81
2020/12/05 03:49:33;;;;;;;18.10;14.77;;;2.80;99.90;;;;;;5112176;28;20205;-81
2020/12/05 03:52:00;;;;;;;18.07;14.13;;;2.80;99.90;;;;;;5112104;28;20202;-81
2020/12/05 03:54:27;;;;;;;19.23;14.73;;;2.80;99.90;;;;;;5112277;28;20197;-81
2020/12/05 03:56:53;;;;;;;17.67;14.10;;;2.90;99.90;;;;;;5111893;27;20218;-81
2020/12/05 03:59:19;;;;;;;19.70;15.07;;;2.80;99.90;;;;;;5112511;28;20241;-81
2020/12/05 04:01:46;;;;;;;17.70;13.67;;;2.80;99.90;;;;;;5112416;28;20212;-81
2020/12/05 04:04:12;;;;;;;17.93;14.67;;;2.80;99.90;;;;;;5112008;28;20206;-81
2020/12/05 04:06:40;;;;;;;20.37;14.77;;;2.80;99.90;;;;;;5111869;28;20241;-81
2020/12/05 04:09:06;;;;;;;17.67;13.90;;;2.80;99.90;;;;;;5111929;27;20210;-82
2020/12/05 04:11:37;;;;;;;19.77;14.33;;;2.80;99.90;;;;;;5111769;27;20255;-81
2020/12/05 04:14:04;;;;;;;19.60;14.57;;;2.80;99.90;;;;;;5111406;28;20198;-82
2020/12/05 04:16:30;;;;;;;19.97;14.73;;;2.80;99.90;;;;;;5111390;28;20577;-81
2020/12/05 04:18:56;;;;;;;18.80;14.27;;;2.80;99.90;;;;;;5111601;28;20251;-81
2020/12/05 04:21:23;;;;;;;19.43;14.70;;;2.80;99.90;;;;;;5111390;28;20380;-81
2020/12/05 04:23:50;;;;;;;16.70;13.87;;;2.80;99.90;;;;;;5112081;28;20209;-84
2020/12/05 04:26:16;;;;;;;18.03;13.80;;;2.70;99.90;;;;;;5112912;28;20560;-84
2020/12/05 04:28:43;;;;;;;16.60;13.57;;;2.70;99.90;;;;;;5112575;28;20237;-85
2020/12/05 04:31:09;;;;;;;16.70;13.90;;;2.80;99.90;;;;;;5112824;28;20280;-84
2020/12/05 04:33:35;;;;;;;17.30;13.40;;;2.80;99.90;;;;;;5112224;28;20210;-83
2020/12/05 04:36:03;;;;;;;18.40;14.00;;;2.80;99.90;;;;;;5112605;28;20321;-84
2020/12/05 04:38:30;;;;;;;17.60;13.90;;;2.90;99.90;;;;;;5111998;28;20202;-83
2020/12/05 04:40:58;;;;;;;18.63;13.37;;;2.90;99.90;;;;;;5112207;28;20206;-83
2020/12/05 04:43:25;;;;;;;17.53;14.03;;;2.90;99.90;;;;;;5112235;28;20202;-84
2020/12/05 04:45:52;;;;;;;17.47;13.70;;;2.90;99.90;;;;;;5112182;28;20212;-83
2020/12/05 04:48:20;;;;;;;16.13;13.27;;;2.90;99.90;;;;;;5111784;28;20236;-84
2020/12/05 04:50:47;;;;;;;17.20;13.33;;;3.10;99.90;;;;;;5111816;28;20292;-83
2020/12/05 04:53:18;;;;;;;17.87;13.13;;;3.00;99.90;;;;;;5111768;28;20328;-83
2020/12/05 04:55:45;;;;;;;16.27;14.17;;;2.90;99.90;;;;;;5112042;28;20281;-82
2020/12/05 04:58:20;;;;;;;17.13;13.50;;;2.90;99.90;;;;;;5111638;28;20210;-83
2020/12/05 05:00:51;;;;;;;18.27;14.20;;;3.00;99.90;;;;;;5111908;28;20285;-84
2020/12/05 05:03:20;;;;;;;16.90;13.57;;;2.90;99.90;;;;;;5111508;28;20229;-83
2020/12/05 05:05:48;;;;;;;15.17;12.83;;;2.90;99.90;;;;;;5112351;28;20265;-87
2020/12/05 05:08:15;;;;;;;18.03;13.40;;;2.90;99.90;;;;;;5112647;28;20230;-87
2020/12/05 05:10:42;;;;;;;16.23;12.67;;;2.90;99.90;;;;;;5112560;28;20202;-90
2020/12/05 05:13:17;;;;;;;15.63;12.87;;;2.90;99.90;;;;;;5112782;28;20206;-87
2020/12/05 05:15:45;;;;;;;18.53;13.37;;;2.90;99.90;;;;;;5112776;28;20548;-87
2020/12/05 05:18:12;;;;;;;16.77;13.73;;;2.90;99.90;;;;;;5112768;28;20232;-86
2020/12/05 05:20:41;;;;;;;18.00;13.40;;;2.90;99.90;;;;;;5112575;28;20288;-89
2020/12/05 05:23:10;;;;;;;18.50;13.77;;;2.90;99.90;;;;;;5112682;28;20202;-86
2020/12/05 05:25:51;;;;;;;17.17;12.67;;;2.80;99.90;;;;;;5112049;27;20691;-86
2020/12/05 05:28:22;;;;;;;17.57;13.63;;;2.80;99.90;;;;;;5112664;28;20269;-88
2020/12/05 05:31:03;;;;;;;16.80;13.50;;;2.80;99.90;;;;;;5111966;28;20209;-86
2020/12/05 05:33:41;;;;;;;16.50;13.43;;;2.80;99.90;;;;;;5112313;28;20195;-88
2020/12/05 05:36:19;;;;;;;18.47;13.50;;;2.80;99.90;;;;;;5112416;28;20207;-87
2020/12/05 05:38:56;;;;;;;17.80;13.47;;;2.80;99.90;;;;;;5112173;28;20194;-81
2020/12/05 05:41:23;;;;;;;15.57;13.13;;;2.80;99.90;;;;;;5110079;28;20190;-83
2020/12/05 05:43:56;;;;;;;14.73;12.33;;;2.80;99.90;;;;;;5110390;28;20293;-83
2020/12/05 05:46:25;;;;;;;16.47;13.17;;;2.80;99.90;;;;;;5110488;28;20194;-82
2020/12/05 05:48:51;;;;;;;14.80;12.57;;;2.80;99.90;;;;;;5109612;28;20704;-82
2020/12/05 05:51:18;;;;;;;16.60;12.33;;;2.70;99.90;;;;;;5109595;28;20526;-82
2020/12/05 05:53:45;;;;;;;15.53;12.83;;;2.70;99.90;;;;;;5109519;28;20240;-83
2020/12/05 05:56:12;;;;;;;15.63;12.70;;;2.70;99.90;;;;;;5110132;28;20218;-82
2020/12/05 05:58:41;;;;;;;15.13;13.03;;;2.70;99.90;;;;;;5109932;28;20213;-82
2020/12/05 06:01:08;;;;;;;16.97;12.73;;;2.70;99.90;;;;;;5109729;28;20592;-82
2020/12/05 06:03:52;;;;;;;16.00;12.27;;;2.70;99.90;;;;;;5110072;28;20228;-81
2020/12/05 06:06:19;;;;;;;16.33;12.87;;;2.70;99.90;;;;;;5110552;27;20194;-82
2020/12/05 06:08:46;;;;;;;15.87;12.33;;;2.70;99.90;;;;;;5109877;28;20728;-83
2020/12/05 06:11:13;;;;;;;14.07;12.40;;;2.70;99.90;;;;;;5110341;28;20207;-84
2020/12/05 06:13:40;;;;;;;15.93;12.50;;;2.70;99.90;;;;;;5110659;28;20298;-83
2020/12/05 06:16:07;;;;;;;15.03;11.97;;;2.70;99.90;;;;;;5110471;28;20210;-84
2020/12/05 06:18:33;;;;;;;15.53;12.50;;;2.70;99.90;;;;;;5110232;28;20206;-82
2020/12/05 06:21:01;;;;;;;15.93;12.57;;;2.70;99.90;;;;;;5109629;28;20210;-82
2020/12/05 06:23:38;;;;;;;16.23;12.00;;;2.70;99.90;;;;;;5109931;28;20658;-82
2020/12/05 06:26:07;;;;;;;14.97;12.13;;;2.80;99.90;;;;;;5109704;28;20285;-82
2020/12/05 06:28:37;;;;;;;16.47;12.20;;;2.70;99.90;;;;;;5109172;28;20875;-82
2020/12/05 06:31:04;;;;;;;15.83;13.20;;;2.70;99.90;;;;;;5109879;28;20212;-82
2020/12/05 06:33:38;;;;;;;16.50;13.20;;;2.70;99.90;;;;;;5109098;28;20206;-82
2020/12/05 06:36:37;;;;;;;15.50;12.37;;;2.70;99.90;;;;;;5109398;28;20198;-80
2020/12/05 06:39:12;;;;;;;14.37;12.47;;;2.60;99.90;;;;;;5103150;28;20221;-86
2020/12/05 06:41:40;;;;;;;18.10;12.73;;;2.70;99.90;;;;;;5110911;28;20706;-85
2020/12/05 06:44:12;;;;;;;16.80;12.67;;;2.70;99.90;;;;;;5111283;28;20224;-86
2020/12/05 06:46:54;;;;;;;18.30;13.17;;;2.70;99.90;;;;;;5111103;28;20242;-86
2020/12/05 06:49:45;;;;;;;14.07;11.57;;;2.70;99.90;;;;;;5111164;28;20208;-86
2020/12/05 06:52:34;;;;;;;15.60;11.97;;;2.60;99.90;;;;;;5105520;28;20903;-83
2020/12/05 06:55:19;;;;;;;15.57;11.30;;;2.70;99.90;;;;;;5091455;28;20571;-85
2020/12/05 06:57:45;;;;;;;16.80;12.30;;;2.70;99.90;;;;;;5090305;28;20685;-83
2020/12/05 07:00:20;;;;;;;16.27;12.03;;;2.70;99.90;;;;;;5097467;28;20550;-82
2020/12/05 07:02:57;;;;;;;15.60;12.33;;;2.70;99.90;;;;;;5103208;28;20261;-82
2020/12/05 07:05:25;;;;;;;14.50;11.67;;;2.70;99.90;;;;;;5105276;28;20194;-82
2020/12/05 07:07:53;;;;;;;12.67;11.07;;;2.80;99.90;;;;;;5089598;28;20448;-85
2020/12/05 07:10:22;;;;;;;16.37;12.37;;;2.80;99.90;;;;;;5091927;28;20242;-84
2020/12/05 07:12:48;;;;;;;16.67;12.70;;;2.80;99.90;;;;;;5105839;28;20297;-84
2020/12/05 07:15:20;;;;;;;13.17;10.97;;;2.90;99.90;;;;;;5110390;28;20202;-85
2020/12/05 07:17:47;;;;;;;14.17;11.50;;;3.00;99.90;;;;;;5110297;27;20222;-83
2020/12/05 07:20:13;;;;;;;13.37;10.50;;;2.90;99.90;;;;;;5105930;28;20234;-86
2020/12/05 07:22:40;;;;;;;13.03;10.70;;;2.90;99.90;;;;;;5089104;28;20203;-84
2020/12/05 07:25:06;;;;;;;14.23;11.23;;;3.00;99.90;;;;;;5088433;28;20211;-85
2020/12/05 07:27:33;;;;;;;13.03;11.17;;;3.00;99.90;;;;;;5088466;28;20227;-85
2020/12/05 07:30:00;;;;;;;13.20;11.27;;;3.00;99.90;;;;;;5088616;28;20213;-86
2020/12/05 07:32:32;;;;;;;13.57;10.93;;;3.00;99.90;;;;;;5090430;28;20210;-84
2020/12/05 07:34:58;;;;;;;11.37;10.20;;;3.00;99.90;;;;;;5098162;28;20189;-85
2020/12/05 07:37:26;;;;;;;13.23;10.57;;;3.10;99.90;;;;;;5099304;28;20198;-85
2020/12/05 07:39:53;;;;;;;13.07;11.30;;;3.10;99.90;;;;;;5098962;28;20203;-84
2020/12/05 07:42:19;;;;;;;19.90;17.40;;;3.10;99.90;;;;;;5104775;28;20234;-87
2020/12/05 07:44:47;;;;;;;21.30;18.83;;;3.20;99.90;;;;;;5099360;28;20696;-86
2020/12/05 07:47:18;;;;;;;13.33;11.00;;;3.20;99.90;;;;;;5106111;28;20232;-83
2020/12/05 07:49:51;;;;;;;10.93;9.83;;;3.20;99.90;;;;;;5109500;28;20272;-82
2020/12/05 07:52:21;;;;;;;10.53;9.47;;;3.20;99.90;;;;;;5108068;28;20237;-86
2020/12/05 07:54:55;;;;;;;12.90;10.53;;;3.30;99.90;;;;;;5108727;28;20285;-83
2020/12/05 07:57:23;;;;;;;15.47;12.87;;;3.30;99.90;;;;;;5108899;28;20660;-84
2020/12/05 07:59:52;;;;;;;11.07;9.97;;;3.30;99.90;;;;;;5108054;28;20202;-84
2020/12/05 08:02:29;;;;;;;12.80;10.40;;;3.30;99.90;;;;;;5108200;28;20218;-83
2020/12/05 08:05:02;;;;;;;11.20;10.00;;;3.30;99.90;;;;;;5107623;28;20194;-84
2020/12/05 08:07:37;;;;;;;11.37;10.00;;;3.30;99.90;;;;;;5099036;28;20272;-83
2020/12/05 08:10:09;;;;;;;11.07;9.97;;;3.30;99.90;;;;;;5087903;28;20315;-83
2020/12/05 08:13:11;;;;;;;11.27;9.57;;;3.30;99.90;;;;;;5096133;28;20310;-84
2020/12/05 08:15:38;;;;;;;10.97;9.80;;;3.40;99.90;;;;;;5107836;27;20200;-84
2020/12/05 08:18:06;;;;;;;12.03;10.17;;;3.40;99.90;;;;;;5104380;28;20971;-83
2020/12/05 08:20:32;;;;;;;12.67;10.10;;;3.40;99.90;;;;;;5107998;28;20206;-83
2020/12/05 08:22:59;;;;;;;10.70;9.60;;;3.40;99.90;;;;;;5107805;28;20208;-83
2020/12/05 08:25:27;;;;;;;11.17;9.97;;;3.50;99.90;;;;;;5107401;28;20210;-83
2020/12/05 08:27:54;;;;;;;10.03;8.97;;;3.60;99.90;;;;;;5095946;28;20569;-83
2020/12/05 08:30:21;;;;;;;9.97;8.97;;;3.60;99.90;;;;;;5101784;28;20687;-78
2020/12/05 08:32:49;;;;;;;16.97;13.10;;;3.70;99.90;;;;;;5098299;28;20207;-78
2020/12/05 08:35:16;;;;;;;17.07;15.37;;;3.80;99.90;;;;;;5099375;28;20203;-84
2020/12/05 08:37:45;;;;;;;10.67;9.03;;;3.90;99.90;;;;;;5105441;28;20202;-84
2020/12/05 08:40:16;;;;;;;9.87;8.53;;;3.90;99.90;;;;;;5096402;28;20209;-84
2020/12/05 08:42:46;;;;;;;11.47;10.27;;;4.00;99.90;;;;;;5090645;28;20201;-84
2020/12/05 08:45:16;;;;;;;10.20;9.00;;;4.00;99.90;;;;;;5091559;28;20190;-82
2020/12/05 08:47:46;;;;;;;9.50;8.53;;;4.10;99.90;;;;;;5089773;28;20328;-83
2020/12/05 08:50:24;;;;;;;9.83;8.83;;;4.10;99.90;;;;;;5090802;28;20245;-82
2020/12/05 08:52:53;;;;;;;10.03;9.00;;;4.10;99.90;;;;;;5090486;28;20237;-84
2020/12/05 08:55:24;;;;;;;10.60;9.10;;;4.10;99.90;;;;;;5090835;28;20206;-83
2020/12/05 08:57:57;;;;;;;9.80;8.80;;;4.10;99.90;;;;;;5090370;28;20289;-83
2020/12/05 09:00:24;;;;;;;12.13;9.77;;;4.10;99.90;;;;;;5090628;28;20289;-84
2020/12/05 09:02:51;;;;;;;12.00;9.13;;;4.10;99.90;;;;;;5090274;28;20230;-84
2020/12/05 09:05:17;;;;;;;10.13;9.10;;;4.10;99.90;;;;;;5090415;28;20202;-85
2020/12/05 09:07:55;;;;;;;11.97;10.00;;;4.10;99.90;;;;;;5090217;28;20226;-84
2020/12/05 09:10:21;;;;;;;10.40;9.30;;;4.20;99.90;;;;;;5090762;28;20388;-83
2020/12/05 09:12:49;;;;;;;10.67;9.67;;;4.20;99.90;;;;;;5090404;28;20203;-83
2020/12/05 09:15:15;;;;;;;9.83;8.83;;;4.20;99.90;;;;;;5090836;28;20674;-82
2020/12/05 09:17:42;;;;;;;11.27;9.90;;;4.20;99.90;;;;;;5090459;28;20293;-82
2020/12/05 09:20:17;;;;;;;12.00;10.00;;;4.30;99.90;;;;;;5089723;28;20286;-83
2020/12/05 09:22:48;;;;;;;10.13;9.03;;;4.40;99.90;;;;;;5090134;28;20209;-82
2020/12/05 09:25:27;;;;;;;10.80;9.70;;;4.60;99.90;;;;;;5090258;28;20310;-82
2020/12/05 09:27:53;;;;;;;10.10;9.10;;;4.70;99.90;;;;;;5089822;28;20218;-83
2020/12/05 09:30:21;;;;;;;11.50;9.80;;;4.90;99.90;;;;;;5090100;28;20369;-82
2020/12/05 09:32:48;;;;;;;10.43;9.30;;;5.10;99.90;;;;;;5089792;28;20209;-82
2020/12/05 09:35:16;;;;;;;10.90;9.60;;;5.20;99.90;;;;;;5089665;28;20294;-82
2020/12/05 09:37:43;;;;;;;10.90;9.57;;;5.40;99.90;;;;;;5101340;28;20214;-82
2020/12/05 09:40:12;;;;;;;12.33;9.27;;;5.50;99.90;;;;;;5089333;28;20210;-82
2020/12/05 09:42:41;;;;;;;10.77;9.53;;;5.60;99.90;;;;;;5089232;28;20286;-82
2020/12/05 09:45:09;;;;;;;11.03;9.93;;;5.60;99.90;;;;;;5089621;28;20297;-81
2020/12/05 09:47:35;;;;;;;11.80;9.77;;;5.70;99.90;;;;;;5089014;28;20223;-81
2020/12/05 09:50:02;;;;;;;11.13;10.03;;;5.80;99.90;;;;;;5089301;28;20297;-82
2020/12/05 09:52:29;;;;;;;10.60;9.60;;;5.90;99.90;;;;;;5088815;28;20231;-81
2020/12/05 09:54:55;;;;;;;10.70;9.70;;;5.90;99.90;;;;;;5089124;28;20206;-83
2020/12/05 09:57:22;;;;;;;11.17;10.00;;;6.00;99.90;;;;;;5088687;28;20735;-81
2020/12/05 09:59:49;;;;;;;11.43;9.47;;;6.10;99.90;;;;;;5088677;28;20241;-82
2020/12/05 10:02:15;;;;;;;9.93;8.97;;;6.10;99.90;;;;;;5088770;28;20808;-81
2020/12/05 10:04:42;;;;;;;9.83;8.80;;;6.20;99.90;;;;;;5088987;28;20234;-81
2020/12/05 10:07:08;;;;;;;10.33;9.17;;;6.40;99.90;;;;;;5089323;28;20301;-81
2020/12/05 10:09:35;;;;;;;9.97;8.90;;;6.40;99.90;;;;;;5089148;28;20298;-80
2020/12/05 10:12:02;;;;;;;9.97;8.87;;;6.50;99.90;;;;;;5088672;28;20248;-81
2020/12/05 10:14:28;;;;;;;8.93;8.07;;;6.60;99.90;;;;;;5088518;28;20736;-80
2020/12/05 10:16:56;;;;;;;10.07;9.07;;;6.60;99.90;;;;;;5088682;28;20998;-81
2020/12/05 10:19:22;;;;;;;10.83;9.10;;;6.50;99.90;;;;;;5088721;28;20706;-80
2020/12/05 10:21:50;;;;;;;9.80;8.80;;;6.50;99.90;;;;;;5088019;28;20213;-80
2020/12/05 10:24:16;;;;;;;9.57;8.67;;;6.40;99.90;;;;;;5088444;28;20763;-81
2020/12/05 10:26:46;;;;;;;9.30;8.30;;;6.60;99.90;;;;;;5092654;28;20254;-82
2020/12/05 10:29:13;;;;;;;9.43;8.53;;;6.70;99.90;;;;;;5092496;28;20234;-83
2020/12/05 10:31:44;;;;;;;11.17;9.30;;;6.80;99.90;;;;;;5096606;28;20285;-78
2020/12/05 10:34:11;;;;;;;24.90;22.40;;;7.00;99.90;;;;;;5100245;28;20189;-78
2020/12/05 10:36:38;;;;;;;9.93;8.67;;;7.10;99.90;;;;;;5092614;28;20199;-79
2020/12/05 10:39:05;;;;;;;10.47;8.63;;;7.20;99.90;;;;;;5091478;28;20230;-79
2020/12/05 10:41:31;;;;;;;9.63;8.63;;;7.30;99.90;;;;;;5103882;28;20212;-80
2020/12/05 10:43:58;;;;;;;10.53;8.97;;;7.40;99.90;;;;;;5104343;28;20740;-81
2020/12/05 10:46:24;;;;;;;8.67;7.77;;;7.50;99.90;;;;;;5105333;28;20293;-81
2020/12/05 10:48:50;;;;;;;9.77;8.63;;;7.40;99.90;;;;;;5108179;28;20758;-81
2020/12/05 10:51:18;;;;;;;8.53;7.70;;;7.30;99.90;;;;;;5108987;28;20210;-81
2020/12/05 10:53:44;;;;;;;9.53;8.27;;;7.30;99.90;;;;;;5096187;28;20334;-81
2020/12/05 10:56:10;;;;;;;9.83;7.93;;;7.30;99.90;;;;;;5092835;28;20322;-81
2020/12/05 10:58:37;;;;;;;9.73;8.73;;;7.20;99.90;;;;;;5091974;28;20649;-81
2020/12/05 11:01:03;;;;;;;10.53;8.23;;;7.30;99.90;;;;;;5092410;28;20234;-81
2020/12/05 11:03:30;;;;;;;9.83;8.53;;;7.20;99.90;;;;;;5092699;28;20203;-81
2020/12/05 11:05:56;;;;;;;9.80;8.73;;;7.10;99.90;;;;;;5092232;28;20238;-82
2020/12/05 11:08:23;;;;;;;9.77;8.43;;;7.10;99.90;;;;;;5092082;28;20748;-81
2020/12/05 11:10:50;;;;;;;10.80;8.63;;;7.20;99.90;;;;;;5092376;28;20235;-82
2020/12/05 11:13:16;;;;;;;9.47;8.50;;;7.10;99.90;;;;;;5091847;28;20744;-81
2020/12/05 11:15:43;;;;;;;11.30;8.57;;;7.10;99.90;;;;;;5092166;28;20207;-82
2020/12/05 11:18:09;;;;;;;11.17;9.20;;;7.00;99.90;;;;;;5092359;28;20205;-82
2020/12/05 11:20:35;;;;;;;9.90;8.87;;;7.00;99.90;;;;;;5092349;28;20210;-82
2020/12/05 11:23:02;;;;;;;10.00;8.47;;;7.00;99.90;;;;;;5091711;28;20673;-82
2020/12/05 11:25:29;;;;;;;11.43;8.80;;;6.90;99.90;;;;;;5091758;28;20210;-81
2020/12/05 11:27:55;;;;;;;10.63;9.00;;;6.90;99.90;;;;;;5091765;28;20237;-81
2020/12/05 11:30:21;;;;;;;14.00;10.17;;;6.80;99.90;;;;;;5092264;28;20230;-81
2020/12/05 11:32:48;;;;;;;14.90;11.07;;;6.80;99.90;;;;;;5091988;28;20205;-82
2020/12/05 11:35:14;;;;;;;19.33;14.07;;;6.70;99.90;;;;;;5091740;28;20202;-81
2020/12/05 11:37:41;;;;;;;14.87;11.20;;;6.70;99.90;;;;;;5091715;28;20206;-82
2020/12/05 11:40:07;;;;;;;16.80;11.80;;;6.70;99.90;;;;;;5097584;28;20289;-82
2020/12/05 11:42:34;;;;;;;11.27;9.50;;;6.60;99.90;;;;;;5111985;28;20281;-82
2020/12/05 11:45:01;;;;;;;12.70;10.07;;;6.70;99.90;;;;;;5112416;28;20241;-81
2020/12/05 11:47:27;;;;;;;15.30;10.60;;;6.70;99.90;;;;;;5111985;28;20590;-82
2020/12/05 11:49:54;;;;;;;14.77;10.77;;;6.60;99.90;;;;;;5112228;28;20237;-83
2020/12/05 11:52:20;;;;;;;19.73;13.67;;;6.60;99.90;;;;;;5111803;28;20320;-82
2020/12/05 11:54:47;;;;;;;17.40;12.07;;;6.50;99.90;;;;;;5112121;28;20195;-83
2020/12/05 11:57:13;;;;;;;15.10;10.83;;;6.50;99.90;;;;;;5112271;28;20213;-81
2020/12/05 11:59:41;;;;;;;15.73;11.67;;;6.50;99.90;;;;;;5111237;28;20210;-82
2020/12/05 12:02:08;;;;;;;34.27;18.73;;;6.50;99.90;;;;;;5111342;28;20226;-82
2020/12/05 12:04:34;;;;;;;30.80;17.97;;;6.60;99.90;;;;;;5112117;28;20210;-82
2020/12/05 12:07:00;;;;;;;25.93;16.43;;;6.80;99.90;;;;;;5111775;28;20205;-80
2020/12/05 12:09:27;;;;;;;13.57;10.20;;;6.90;99.90;;;;;;5111691;27;20324;-83
2020/12/05 12:11:53;;;;;;;21.57;13.87;;;7.00;99.90;;;;;;5111823;28;20221;-82
2020/12/05 12:14:20;;;;;;;13.47;10.73;;;7.10;99.90;;;;;;5111655;28;20197;-83
2020/12/05 12:16:48;;;;;;;11.70;10.50;;;7.20;99.90;;;;;;5111830;28;20240;-82
2020/12/05 12:19:14;;;;;;;14.77;11.33;;;7.20;99.90;;;;;;5111387;28;20732;-84
2020/12/05 12:21:41;;;;;;;12.53;10.27;;;7.20;99.90;;;;;;5099739;28;20285;-81
2020/12/05 12:24:07;;;;;;;11.23;9.80;;;7.30;99.90;;;;;;5101203;28;20210;-84
2020/12/05 12:26:33;;;;;;;12.30;9.27;;;7.20;99.90;;;;;;5111785;28;20208;-83
2020/12/05 12:29:00;;;;;;;14.30;11.70;;;7.20;99.90;;;;;;5111362;27;20586;-83
2020/12/05 12:31:26;;;;;;;39.13;25.47;;;7.10;99.90;;;;;;5111551;28;20263;-83
2020/12/05 12:33:54;;;;;;;25.80;17.97;;;7.10;99.90;;;;;;5111132;28;20201;-83
2020/12/05 12:36:22;;;;;;;19.73;15.73;;;7.00;99.90;;;;;;5111545;28;20899;-83
2020/12/05 12:38:48;;;;;;;22.13;16.63;;;6.90;99.90;;;;;;5110959;28;20729;-83
2020/12/05 12:41:15;;;;;;;15.43;11.97;;;6.80;99.90;;;;;;5111264;27;20202;-83
2020/12/05 12:43:41;;;;;;;19.30;15.33;;;6.70;99.90;;;;;;5111265;27;20209;-84
2020/12/05 12:46:08;;;;;;;25.53;19.77;;;6.60;99.90;;;;;;5111128;28;20211;-83